sensor_id;sensor_type;location;lat;lon;timestamp;P1;durP1;ratioP1;P2;durP2;ratioP2
2009;SDS011;1008;47.404;8.502;2023-05-10T00:01:42;0.87;;;0.63;;
2009;SDS011;1008;47.404;8.502;2023-05-10T00:04:10;0.97;;;0.77;;
2009;SDS011;1008;47.404;8.502;2023-05-10T00:06:36;1.20;;;0.80;;
2009;SDS011;1008;47.404;8.502;2023-05-10T00:09:03;0.90;;;0.73;;
2009;SDS011;1008;47.404;8.502;2023-05-10T00:11:30;0.90;;;0.80;;
2009;SDS011;1008;47.404;8.502;2023-05-10T00:13:57;1.20;;;0.90;;
2009;SDS011;1008;47.404;8.502;2023-05-10T00:16:24;1.10;;;0.90;;
2009;SDS011;1008;47.404;8.502;2023-05-10T00:18:50;0.97;;;0.83;;
2009;SDS011;1008;47.404;8.502;2023-05-10T00:21:18;1.20;;;1.07;;
2009;SDS011;1008;47.404;8.502;2023-05-10T00:23:45;1.23;;;1.00;;
2009;SDS011;1008;47.404;8.502;2023-05-10T00:26:12;1.90;;;1.00;;
2009;SDS011;1008;47.404;8.502;2023-05-10T00:28:39;1.00;;;0.80;;
2009;SDS011;1008;47.404;8.502;2023-05-10T00:31:05;1.00;;;0.90;;
2009;SDS011;1008;47.404;8.502;2023-05-10T00:33:32;2.30;;;1.00;;
2009;SDS011;1008;47.404;8.502;2023-05-10T00:35:59;1.20;;;0.87;;
2009;SDS011;1008;47.404;8.502;2023-05-10T00:38:27;1.00;;;0.80;;
2009;SDS011;1008;47.404;8.502;2023-05-10T00:40:54;1.10;;;1.00;;
2009;SDS011;1008;47.404;8.502;2023-05-10T00:43:21;0.90;;;0.70;;
2009;SDS011;1008;47.404;8.502;2023-05-10T00:45:47;1.17;;;0.97;;
2009;SDS011;1008;47.404;8.502;2023-05-10T00:48:15;1.13;;;0.90;;
2009;SDS011;1008;47.404;8.502;2023-05-10T00:50:42;1.23;;;0.80;;
2009;SDS011;1008;47.404;8.502;2023-05-10T00:53:09;1.20;;;1.10;;
2009;SDS011;1008;47.404;8.502;2023-05-10T00:55:38;1.00;;;0.80;;
2009;SDS011;1008;47.404;8.502;2023-05-10T00:58:04;3.63;;;1.10;;
2009;SDS011;1008;47.404;8.502;2023-05-10T01:00:32;1.60;;;1.13;;
2009;SDS011;1008;47.404;8.502;2023-05-10T01:02:59;1.00;;;0.90;;
2009;SDS011;1008;47.404;8.502;2023-05-10T01:05:26;1.10;;;0.93;;
2009;SDS011;1008;47.404;8.502;2023-05-10T01:07:53;1.00;;;0.80;;
2009;SDS011;1008;47.404;8.502;2023-05-10T01:10:20;1.10;;;0.90;;
2009;SDS011;1008;47.404;8.502;2023-05-10T01:12:49;1.00;;;0.87;;
2009;SDS011;1008;47.404;8.502;2023-05-10T01:15:16;1.50;;;1.00;;
2009;SDS011;1008;47.404;8.502;2023-05-10T01:17:44;2.33;;;1.00;;
2009;SDS011;1008;47.404;8.502;2023-05-10T01:20:12;1.10;;;0.90;;
2009;SDS011;1008;47.404;8.502;2023-05-10T01:29:08;1.30;;;1.20;;
2009;SDS011;1008;47.404;8.502;2023-05-10T01:32:05;1.20;;;0.90;;
2009;SDS011;1008;47.404;8.502;2023-05-10T01:34:44;1.67;;;1.07;;
2009;SDS011;1008;47.404;8.502;2023-05-10T01:37:20;1.30;;;0.93;;
2009;SDS011;1008;47.404;8.502;2023-05-10T01:39:53;1.37;;;1.20;;
2009;SDS011;1008;47.404;8.502;2023-05-10T01:42:28;1.20;;;1.00;;
2009;SDS011;1008;47.404;8.502;2023-05-10T01:45:10;1.37;;;1.20;;
2009;SDS011;1008;47.404;8.502;2023-05-10T01:47:43;1.30;;;1.00;;
2009;SDS011;1008;47.404;8.502;2023-05-10T01:50:15;1.20;;;1.10;;
2009;SDS011;1008;47.404;8.502;2023-05-10T01:52:44;1.10;;;1.00;;
2009;SDS011;1008;47.404;8.502;2023-05-10T01:55:18;1.23;;;0.93;;
2009;SDS011;1008;47.404;8.502;2023-05-10T01:57:50;1.50;;;1.20;;
2009;SDS011;1008;47.404;8.502;2023-05-10T02:00:27;1.20;;;1.10;;
2009;SDS011;1008;47.404;8.502;2023-05-10T02:02:57;1.30;;;1.20;;
2009;SDS011;1008;47.404;8.502;2023-05-10T02:05:27;1.87;;;1.10;;
2009;SDS011;1008;47.404;8.502;2023-05-10T02:07:56;2.13;;;1.20;;
2009;SDS011;1008;47.404;8.502;2023-05-10T02:10:24;1.20;;;1.10;;
2009;SDS011;1008;47.404;8.502;2023-05-10T02:12:52;5.00;;;1.07;;
2009;SDS011;1008;47.404;8.502;2023-05-10T02:15:22;2.70;;;1.20;;
2009;SDS011;1008;47.404;8.502;2023-05-10T02:17:50;1.40;;;1.10;;
2009;SDS011;1008;47.404;8.502;2023-05-10T02:20:22;1.23;;;1.00;;
2009;SDS011;1008;47.404;8.502;2023-05-10T02:22:51;1.63;;;1.13;;
2009;SDS011;1008;47.404;8.502;2023-05-10T02:25:20;1.27;;;1.17;;
2009;SDS011;1008;47.404;8.502;2023-05-10T02:27:49;1.50;;;1.20;;
2009;SDS011;1008;47.404;8.502;2023-05-10T02:30:17;2.07;;;1.33;;
2009;SDS011;1008;47.404;8.502;2023-05-10T02:32:45;1.73;;;1.10;;
2009;SDS011;1008;47.404;8.502;2023-05-10T02:35:12;1.30;;;1.00;;
2009;SDS011;1008;47.404;8.502;2023-05-10T02:37:41;1.43;;;1.07;;
2009;SDS011;1008;47.404;8.502;2023-05-10T02:40:09;1.53;;;1.43;;
2009;SDS011;1008;47.404;8.502;2023-05-10T02:42:37;2.10;;;1.13;;
2009;SDS011;1008;47.404;8.502;2023-05-10T02:45:10;1.70;;;1.30;;
2009;SDS011;1008;47.404;8.502;2023-05-10T02:47:39;1.47;;;1.37;;
2009;SDS011;1008;47.404;8.502;2023-05-10T02:50:06;1.60;;;1.30;;
2009;SDS011;1008;47.404;8.502;2023-05-10T02:52:36;1.40;;;1.27;;
2009;SDS011;1008;47.404;8.502;2023-05-10T02:55:08;1.17;;;1.07;;
2009;SDS011;1008;47.404;8.502;2023-05-10T02:57:39;6.20;;;1.40;;
2009;SDS011;1008;47.404;8.502;2023-05-10T03:00:08;1.47;;;1.27;;
2009;SDS011;1008;47.404;8.502;2023-05-10T03:02:35;1.20;;;1.10;;
2009;SDS011;1008;47.404;8.502;2023-05-10T03:05:02;1.40;;;1.27;;
2009;SDS011;1008;47.404;8.502;2023-05-10T03:07:29;1.30;;;1.20;;
2009;SDS011;1008;47.404;8.502;2023-05-10T03:09:56;1.40;;;1.23;;
2009;SDS011;1008;47.404;8.502;2023-05-10T03:12:26;3.10;;;1.20;;
2009;SDS011;1008;47.404;8.502;2023-05-10T03:15:06;1.40;;;1.20;;
2009;SDS011;1008;47.404;8.502;2023-05-10T03:17:40;1.37;;;1.27;;
2009;SDS011;1008;47.404;8.502;2023-05-10T03:20:15;1.53;;;1.43;;
2009;SDS011;1008;47.404;8.502;2023-05-10T03:22:47;1.67;;;1.57;;
2009;SDS011;1008;47.404;8.502;2023-05-10T03:25:17;1.60;;;1.30;;
2009;SDS011;1008;47.404;8.502;2023-05-10T03:27:48;1.23;;;1.13;;
2009;SDS011;1008;47.404;8.502;2023-05-10T03:30:15;1.60;;;1.50;;
2009;SDS011;1008;47.404;8.502;2023-05-10T03:32:43;1.47;;;1.33;;
2009;SDS011;1008;47.404;8.502;2023-05-10T03:35:10;2.10;;;1.90;;
2009;SDS011;1008;47.404;8.502;2023-05-10T03:37:39;5.03;;;2.03;;
2009;SDS011;1008;47.404;8.502;2023-05-10T03:40:06;2.20;;;1.90;;
2009;SDS011;1008;47.404;8.502;2023-05-10T03:42:33;2.23;;;1.60;;
2009;SDS011;1008;47.404;8.502;2023-05-10T03:45:02;2.10;;;1.90;;
2009;SDS011;1008;47.404;8.502;2023-05-10T03:47:29;2.20;;;2.00;;
2009;SDS011;1008;47.404;8.502;2023-05-10T03:49:56;1.70;;;1.57;;
2009;SDS011;1008;47.404;8.502;2023-05-10T03:52:23;2.47;;;1.80;;
2009;SDS011;1008;47.404;8.502;2023-05-10T03:54:50;2.33;;;1.90;;
2009;SDS011;1008;47.404;8.502;2023-05-10T03:57:17;4.97;;;2.57;;
2009;SDS011;1008;47.404;8.502;2023-05-10T03:59:43;2.00;;;1.70;;
2009;SDS011;1008;47.404;8.502;2023-05-10T04:02:11;2.60;;;1.90;;
2009;SDS011;1008;47.404;8.502;2023-05-10T04:04:38;2.03;;;1.83;;
2009;SDS011;1008;47.404;8.502;2023-05-10T04:07:05;2.27;;;2.07;;
2009;SDS011;1008;47.404;8.502;2023-05-10T04:09:32;2.27;;;1.70;;
2009;SDS011;1008;47.404;8.502;2023-05-10T04:11:59;3.97;;;2.00;;
2009;SDS011;1008;47.404;8.502;2023-05-10T04:14:27;2.20;;;2.00;;
2009;SDS011;1008;47.404;8.502;2023-05-10T04:16:54;2.23;;;2.03;;
2009;SDS011;1008;47.404;8.502;2023-05-10T04:19:22;2.23;;;2.03;;
2009;SDS011;1008;47.404;8.502;2023-05-10T04:21:49;2.17;;;1.80;;
2009;SDS011;1008;47.404;8.502;2023-05-10T04:24:15;2.50;;;2.00;;
2009;SDS011;1008;47.404;8.502;2023-05-10T04:26:42;2.40;;;1.70;;
2009;SDS011;1008;47.404;8.502;2023-05-10T04:29:09;2.23;;;2.03;;
2009;SDS011;1008;47.404;8.502;2023-05-10T04:31:36;2.00;;;1.80;;
2009;SDS011;1008;47.404;8.502;2023-05-10T04:34:03;2.03;;;1.83;;
2009;SDS011;1008;47.404;8.502;2023-05-10T04:36:31;1.90;;;1.63;;
2009;SDS011;1008;47.404;8.502;2023-05-10T04:39:00;2.03;;;1.83;;
2009;SDS011;1008;47.404;8.502;2023-05-10T04:41:27;3.20;;;1.80;;
2009;SDS011;1008;47.404;8.502;2023-05-10T04:43:54;1.50;;;1.40;;
2009;SDS011;1008;47.404;8.502;2023-05-10T04:46:21;2.30;;;1.80;;
2009;SDS011;1008;47.404;8.502;2023-05-10T04:48:48;1.20;;;1.10;;
2009;SDS011;1008;47.404;8.502;2023-05-10T04:51:15;1.87;;;1.40;;
2009;SDS011;1008;47.404;8.502;2023-05-10T04:53:43;1.40;;;1.30;;
2009;SDS011;1008;47.404;8.502;2023-05-10T04:56:10;1.30;;;1.20;;
2009;SDS011;1008;47.404;8.502;2023-05-10T04:58:36;3.20;;;1.60;;
2009;SDS011;1008;47.404;8.502;2023-05-10T05:01:07;1.30;;;1.13;;
2009;SDS011;1008;47.404;8.502;2023-05-10T05:03:35;1.40;;;1.23;;
2009;SDS011;1008;47.404;8.502;2023-05-10T05:06:02;1.30;;;1.20;;
2009;SDS011;1008;47.404;8.502;2023-05-10T05:08:30;1.77;;;1.37;;
2009;SDS011;1008;47.404;8.502;2023-05-10T05:10:59;1.73;;;1.60;;
2009;SDS011;1008;47.404;8.502;2023-05-10T05:13:26;1.70;;;1.60;;
2009;SDS011;1008;47.404;8.502;2023-05-10T05:15:52;1.63;;;1.30;;
2009;SDS011;1008;47.404;8.502;2023-05-10T05:18:19;1.97;;;1.77;;
2009;SDS011;1008;47.404;8.502;2023-05-10T05:20:46;2.97;;;1.80;;
2009;SDS011;1008;47.404;8.502;2023-05-10T05:23:13;1.80;;;1.53;;
2009;SDS011;1008;47.404;8.502;2023-05-10T05:25:39;3.67;;;2.00;;
2009;SDS011;1008;47.404;8.502;2023-05-10T05:28:08;1.70;;;1.60;;
2009;SDS011;1008;47.404;8.502;2023-05-10T05:30:34;2.17;;;1.70;;
2009;SDS011;1008;47.404;8.502;2023-05-10T05:33:01;1.30;;;1.20;;
2009;SDS011;1008;47.404;8.502;2023-05-10T05:35:28;1.57;;;1.30;;
2009;SDS011;1008;47.404;8.502;2023-05-10T05:37:55;1.50;;;1.40;;
2009;SDS011;1008;47.404;8.502;2023-05-10T05:40:22;1.70;;;1.37;;
2009;SDS011;1008;47.404;8.502;2023-05-10T05:42:48;2.13;;;1.60;;
2009;SDS011;1008;47.404;8.502;2023-05-10T05:45:16;1.83;;;1.40;;
2009;SDS011;1008;47.404;8.502;2023-05-10T05:47:43;1.60;;;1.33;;
2009;SDS011;1008;47.404;8.502;2023-05-10T05:50:10;1.40;;;1.30;;
2009;SDS011;1008;47.404;8.502;2023-05-10T05:52:37;4.30;;;1.50;;
2009;SDS011;1008;47.404;8.502;2023-05-10T05:55:04;2.30;;;1.70;;
2009;SDS011;1008;47.404;8.502;2023-05-10T05:57:31;1.37;;;1.27;;
2009;SDS011;1008;47.404;8.502;2023-05-10T05:59:58;1.40;;;1.30;;
2009;SDS011;1008;47.404;8.502;2023-05-10T06:02:26;1.60;;;1.50;;
2009;SDS011;1008;47.404;8.502;2023-05-10T06:04:52;1.43;;;1.33;;
2009;SDS011;1008;47.404;8.502;2023-05-10T06:07:26;2.03;;;1.57;;
2009;SDS011;1008;47.404;8.502;2023-05-10T06:09:53;1.90;;;1.70;;
2009;SDS011;1008;47.404;8.502;2023-05-10T06:12:20;1.40;;;1.30;;
2009;SDS011;1008;47.404;8.502;2023-05-10T06:14:46;1.70;;;1.60;;
2009;SDS011;1008;47.404;8.502;2023-05-10T06:17:13;1.40;;;1.30;;
2009;SDS011;1008;47.404;8.502;2023-05-10T06:19:41;1.50;;;1.40;;
2009;SDS011;1008;47.404;8.502;2023-05-10T06:22:08;2.00;;;1.80;;
2009;SDS011;1008;47.404;8.502;2023-05-10T06:24:35;1.87;;;1.77;;
2009;SDS011;1008;47.404;8.502;2023-05-10T06:27:02;1.60;;;1.50;;
2009;SDS011;1008;47.404;8.502;2023-05-10T06:29:29;1.70;;;1.60;;
2009;SDS011;1008;47.404;8.502;2023-05-10T06:31:55;1.70;;;1.43;;
2009;SDS011;1008;47.404;8.502;2023-05-10T06:34:22;1.93;;;1.40;;
2009;SDS011;1008;47.404;8.502;2023-05-10T06:36:50;1.37;;;1.27;;
2009;SDS011;1008;47.404;8.502;2023-05-10T06:39:17;4.47;;;1.30;;
2009;SDS011;1008;47.404;8.502;2023-05-10T06:41:44;1.90;;;1.43;;
2009;SDS011;1008;47.404;8.502;2023-05-10T06:44:11;1.43;;;1.33;;
2009;SDS011;1008;47.404;8.502;2023-05-10T06:46:38;2.00;;;1.43;;
2009;SDS011;1008;47.404;8.502;2023-05-10T06:49:05;2.10;;;1.50;;
2009;SDS011;1008;47.404;8.502;2023-05-10T06:51:32;1.53;;;1.37;;
2009;SDS011;1008;47.404;8.502;2023-05-10T06:54:01;2.00;;;1.30;;
2009;SDS011;1008;47.404;8.502;2023-05-10T06:56:28;1.30;;;1.20;;
2009;SDS011;1008;47.404;8.502;2023-05-10T06:58:54;2.40;;;1.20;;
2009;SDS011;1008;47.404;8.502;2023-05-10T07:01:21;1.73;;;1.23;;
2009;SDS011;1008;47.404;8.502;2023-05-10T07:03:48;1.30;;;1.07;;
2009;SDS011;1008;47.404;8.502;2023-05-10T07:06:15;3.37;;;1.20;;
2009;SDS011;1008;47.404;8.502;2023-05-10T07:08:42;1.20;;;1.10;;
2009;SDS011;1008;47.404;8.502;2023-05-10T07:11:10;1.67;;;1.00;;
2009;SDS011;1008;47.404;8.502;2023-05-10T07:13:37;1.00;;;0.83;;
2009;SDS011;1008;47.404;8.502;2023-05-10T07:16:06;1.60;;;1.00;;
2009;SDS011;1008;47.404;8.502;2023-05-10T07:18:33;1.00;;;0.87;;
2009;SDS011;1008;47.404;8.502;2023-05-10T07:21:00;1.57;;;1.20;;
2009;SDS011;1008;47.404;8.502;2023-05-10T07:23:27;1.37;;;1.00;;
2009;SDS011;1008;47.404;8.502;2023-05-10T07:25:54;1.20;;;1.10;;
2009;SDS011;1008;47.404;8.502;2023-05-10T07:28:23;1.97;;;1.37;;
2009;SDS011;1008;47.404;8.502;2023-05-10T07:30:50;1.83;;;1.20;;
2009;SDS011;1008;47.404;8.502;2023-05-10T07:33:17;2.40;;;1.40;;
2009;SDS011;1008;47.404;8.502;2023-05-10T07:35:44;1.40;;;1.17;;
2009;SDS011;1008;47.404;8.502;2023-05-10T07:38:10;2.13;;;1.00;;
2009;SDS011;1008;47.404;8.502;2023-05-10T07:40:37;2.20;;;1.30;;
2009;SDS011;1008;47.404;8.502;2023-05-10T07:43:04;1.30;;;1.03;;
2009;SDS011;1008;47.404;8.502;2023-05-10T07:45:33;2.53;;;1.30;;
2009;SDS011;1008;47.404;8.502;2023-05-10T07:47:59;1.40;;;1.20;;
2009;SDS011;1008;47.404;8.502;2023-05-10T07:50:26;4.37;;;1.50;;
2009;SDS011;1008;47.404;8.502;2023-05-10T07:52:53;1.67;;;1.27;;
2009;SDS011;1008;47.404;8.502;2023-05-10T07:55:20;1.30;;;1.20;;
2009;SDS011;1008;47.404;8.502;2023-05-10T07:57:47;1.60;;;1.40;;
2009;SDS011;1008;47.404;8.502;2023-05-10T08:00:16;2.00;;;1.23;;
2009;SDS011;1008;47.404;8.502;2023-05-10T08:02:45;3.20;;;1.40;;
2009;SDS011;1008;47.404;8.502;2023-05-10T08:05:12;1.67;;;1.20;;
2009;SDS011;1008;47.404;8.502;2023-05-10T08:07:39;1.70;;;1.40;;
2009;SDS011;1008;47.404;8.502;2023-05-10T08:10:06;2.70;;;1.33;;
2009;SDS011;1008;47.404;8.502;2023-05-10T08:12:34;2.40;;;1.30;;
2009;SDS011;1008;47.404;8.502;2023-05-10T08:15:01;2.63;;;1.40;;
2009;SDS011;1008;47.404;8.502;2023-05-10T08:17:29;1.70;;;1.37;;
2009;SDS011;1008;47.404;8.502;2023-05-10T08:19:57;5.40;;;1.60;;
2009;SDS011;1008;47.404;8.502;2023-05-10T08:22:23;1.43;;;1.27;;
2009;SDS011;1008;47.404;8.502;2023-05-10T08:24:51;1.80;;;1.43;;
2009;SDS011;1008;47.404;8.502;2023-05-10T08:27:17;3.03;;;1.23;;
2009;SDS011;1008;47.404;8.502;2023-05-10T08:29:44;1.40;;;1.30;;
2009;SDS011;1008;47.404;8.502;2023-05-10T08:32:11;1.30;;;1.20;;
2009;SDS011;1008;47.404;8.502;2023-05-10T08:34:37;1.70;;;1.30;;
2009;SDS011;1008;47.404;8.502;2023-05-10T08:37:06;3.03;;;1.37;;
2009;SDS011;1008;47.404;8.502;2023-05-10T08:39:33;1.77;;;1.50;;
2009;SDS011;1008;47.404;8.502;2023-05-10T08:42:01;1.53;;;1.43;;
2009;SDS011;1008;47.404;8.502;2023-05-10T08:44:30;2.00;;;1.63;;
2009;SDS011;1008;47.404;8.502;2023-05-10T08:47:01;2.97;;;1.73;;
2009;SDS011;1008;47.404;8.502;2023-05-10T08:49:31;1.93;;;1.50;;
2009;SDS011;1008;47.404;8.502;2023-05-10T08:51:59;4.30;;;1.47;;
2009;SDS011;1008;47.404;8.502;2023-05-10T08:54:30;1.93;;;1.40;;
2009;SDS011;1008;47.404;8.502;2023-05-10T08:56:58;2.43;;;1.37;;
2009;SDS011;1008;47.404;8.502;2023-05-10T08:59:25;1.47;;;1.13;;
2009;SDS011;1008;47.404;8.502;2023-05-10T09:01:52;2.07;;;1.50;;
2009;SDS011;1008;47.404;8.502;2023-05-10T09:04:20;3.10;;;1.50;;
2009;SDS011;1008;47.404;8.502;2023-05-10T09:06:47;4.40;;;1.47;;
2009;SDS011;1008;47.404;8.502;2023-05-10T09:09:14;3.00;;;1.50;;
2009;SDS011;1008;47.404;8.502;2023-05-10T09:11:44;1.90;;;1.50;;
2009;SDS011;1008;47.404;8.502;2023-05-10T09:14:11;3.10;;;1.47;;
2009;SDS011;1008;47.404;8.502;2023-05-10T09:16:39;2.00;;;1.20;;
2009;SDS011;1008;47.404;8.502;2023-05-10T09:19:07;1.80;;;1.40;;
2009;SDS011;1008;47.404;8.502;2023-05-10T09:21:34;3.77;;;1.90;;
2009;SDS011;1008;47.404;8.502;2023-05-10T09:24:03;2.53;;;1.60;;
2009;SDS011;1008;47.404;8.502;2023-05-10T09:26:30;2.40;;;1.90;;
2009;SDS011;1008;47.404;8.502;2023-05-10T09:28:59;2.57;;;1.70;;
2009;SDS011;1008;47.404;8.502;2023-05-10T09:31:43;4.43;;;1.70;;
2009;SDS011;1008;47.404;8.502;2023-05-10T09:34:15;2.43;;;1.67;;
2009;SDS011;1008;47.404;8.502;2023-05-10T09:36:52;4.80;;;1.77;;
2009;SDS011;1008;47.404;8.502;2023-05-10T09:39:21;1.43;;;1.30;;
2009;SDS011;1008;47.404;8.502;2023-05-10T09:41:56;9.13;;;1.80;;
2009;SDS011;1008;47.404;8.502;2023-05-10T09:44:26;2.33;;;1.77;;
2009;SDS011;1008;47.404;8.502;2023-05-10T09:46:53;2.20;;;1.73;;
2009;SDS011;1008;47.404;8.502;2023-05-10T09:49:20;3.33;;;1.70;;
2009;SDS011;1008;47.404;8.502;2023-05-10T09:51:47;3.20;;;1.57;;
2009;SDS011;1008;47.404;8.502;2023-05-10T09:54:25;3.70;;;1.83;;
2009;SDS011;1008;47.404;8.502;2023-05-10T09:56:52;1.73;;;1.53;;
2009;SDS011;1008;47.404;8.502;2023-05-10T09:59:18;2.90;;;1.20;;
2009;SDS011;1008;47.404;8.502;2023-05-10T10:01:50;2.00;;;1.63;;
2009;SDS011;1008;47.404;8.502;2023-05-10T10:04:18;2.33;;;1.30;;
2009;SDS011;1008;47.404;8.502;2023-05-10T10:06:46;1.53;;;1.43;;
2009;SDS011;1008;47.404;8.502;2023-05-10T10:09:24;3.00;;;1.53;;
2009;SDS011;1008;47.404;8.502;2023-05-10T10:11:51;6.40;;;2.00;;
2009;SDS011;1008;47.404;8.502;2023-05-10T10:14:19;2.33;;;1.70;;
2009;SDS011;1008;47.404;8.502;2023-05-10T10:16:47;3.20;;;1.70;;
2009;SDS011;1008;47.404;8.502;2023-05-10T10:19:16;1.60;;;1.43;;
2009;SDS011;1008;47.404;8.502;2023-05-10T10:21:44;2.13;;;1.43;;
2009;SDS011;1008;47.404;8.502;2023-05-10T10:24:11;3.23;;;1.93;;
2009;SDS011;1008;47.404;8.502;2023-05-10T10:26:37;3.33;;;1.40;;
2009;SDS011;1008;47.404;8.502;2023-05-10T10:29:09;3.80;;;1.80;;
2009;SDS011;1008;47.404;8.502;2023-05-10T10:31:45;1.80;;;1.30;;
2009;SDS011;1008;47.404;8.502;2023-05-10T10:34:20;3.17;;;1.40;;
2009;SDS011;1008;47.404;8.502;2023-05-10T10:36:51;1.47;;;1.20;;
2009;SDS011;1008;47.404;8.502;2023-05-10T10:39:19;2.60;;;1.57;;
2009;SDS011;1008;47.404;8.502;2023-05-10T10:41:50;2.37;;;1.20;;
2009;SDS011;1008;47.404;8.502;2023-05-10T10:47:22;2.97;;;1.20;;
2009;SDS011;1008;47.404;8.502;2023-05-10T10:50:02;3.50;;;1.53;;
2009;SDS011;1008;47.404;8.502;2023-05-10T10:52:31;1.93;;;1.60;;
2009;SDS011;1008;47.404;8.502;2023-05-10T10:54:59;2.87;;;1.50;;
2009;SDS011;1008;47.404;8.502;2023-05-10T10:57:28;3.40;;;1.50;;
2009;SDS011;1008;47.404;8.502;2023-05-10T11:02:45;5.77;;;2.10;;
2009;SDS011;1008;47.404;8.502;2023-05-10T11:05:24;2.30;;;2.10;;
2009;SDS011;1008;47.404;8.502;2023-05-10T11:08:10;3.13;;;1.70;;
2009;SDS011;1008;47.404;8.502;2023-05-10T11:10:52;1.73;;;1.63;;
2009;SDS011;1008;47.404;8.502;2023-05-10T11:13:29;1.57;;;1.47;;
2009;SDS011;1008;47.404;8.502;2023-05-10T11:15:57;1.70;;;1.13;;
2009;SDS011;1008;47.404;8.502;2023-05-10T11:18:25;2.67;;;1.60;;
2009;SDS011;1008;47.404;8.502;2023-05-10T11:20:55;2.00;;;1.47;;
2009;SDS011;1008;47.404;8.502;2023-05-10T11:23:23;2.77;;;1.23;;
2009;SDS011;1008;47.404;8.502;2023-05-10T11:25:55;1.80;;;1.60;;
2009;SDS011;1008;47.404;8.502;2023-05-10T11:28:22;5.33;;;1.40;;
2009;SDS011;1008;47.404;8.502;2023-05-10T11:30:49;2.37;;;1.60;;
2009;SDS011;1008;47.404;8.502;2023-05-10T11:33:17;1.40;;;1.20;;
2009;SDS011;1008;47.404;8.502;2023-05-10T11:35:45;2.33;;;1.30;;
2009;SDS011;1008;47.404;8.502;2023-05-10T11:38:13;2.20;;;1.33;;
2009;SDS011;1008;47.404;8.502;2023-05-10T11:40:40;4.90;;;1.40;;
2009;SDS011;1008;47.404;8.502;2023-05-10T11:43:08;2.27;;;1.17;;
2009;SDS011;1008;47.404;8.502;2023-05-10T11:45:36;3.73;;;1.37;;
2009;SDS011;1008;47.404;8.502;2023-05-10T11:48:03;1.30;;;1.20;;
2009;SDS011;1008;47.404;8.502;2023-05-10T11:50:30;1.53;;;1.13;;
2009;SDS011;1008;47.404;8.502;2023-05-10T11:52:57;1.57;;;1.47;;
2009;SDS011;1008;47.404;8.502;2023-05-10T11:55:26;1.30;;;1.20;;
2009;SDS011;1008;47.404;8.502;2023-05-10T11:57:55;3.00;;;1.17;;
2009;SDS011;1008;47.404;8.502;2023-05-10T12:00:25;4.50;;;1.23;;
2009;SDS011;1008;47.404;8.502;2023-05-10T12:02:52;2.43;;;1.40;;
2009;SDS011;1008;47.404;8.502;2023-05-10T12:05:19;3.37;;;1.20;;
2009;SDS011;1008;47.404;8.502;2023-05-10T12:07:46;1.97;;;1.20;;
2009;SDS011;1008;47.404;8.502;2023-05-10T12:10:13;2.30;;;1.17;;
2009;SDS011;1008;47.404;8.502;2023-05-10T12:12:43;1.47;;;1.23;;
2009;SDS011;1008;47.404;8.502;2023-05-10T12:15:12;2.17;;;1.53;;
2009;SDS011;1008;47.404;8.502;2023-05-10T12:17:44;1.83;;;1.00;;
2009;SDS011;1008;47.404;8.502;2023-05-10T12:20:14;1.60;;;1.20;;
2009;SDS011;1008;47.404;8.502;2023-05-10T12:22:43;1.20;;;1.00;;
2009;SDS011;1008;47.404;8.502;2023-05-10T12:25:15;2.40;;;1.30;;
2009;SDS011;1008;47.404;8.502;2023-05-10T12:27:48;2.43;;;1.30;;
2009;SDS011;1008;47.404;8.502;2023-05-10T12:30:19;2.77;;;1.50;;
2009;SDS011;1008;47.404;8.502;2023-05-10T12:32:47;1.80;;;1.67;;
2009;SDS011;1008;47.404;8.502;2023-05-10T12:35:14;2.60;;;1.70;;
2009;SDS011;1008;47.404;8.502;2023-05-10T12:37:41;4.60;;;1.70;;
2009;SDS011;1008;47.404;8.502;2023-05-10T12:40:09;4.10;;;1.77;;
2009;SDS011;1008;47.404;8.502;2023-05-10T12:42:37;3.17;;;1.63;;
2009;SDS011;1008;47.404;8.502;2023-05-10T12:45:07;2.10;;;1.90;;
2009;SDS011;1008;47.404;8.502;2023-05-10T12:47:34;2.43;;;1.57;;
2009;SDS011;1008;47.404;8.502;2023-05-10T12:50:02;2.10;;;1.90;;
2009;SDS011;1008;47.404;8.502;2023-05-10T12:52:29;2.03;;;1.60;;
2009;SDS011;1008;47.404;8.502;2023-05-10T12:54:57;2.77;;;1.50;;
2009;SDS011;1008;47.404;8.502;2023-05-10T12:57:25;2.00;;;1.80;;
2009;SDS011;1008;47.404;8.502;2023-05-10T12:59:52;1.83;;;1.73;;
2009;SDS011;1008;47.404;8.502;2023-05-10T13:02:21;4.30;;;1.73;;
2009;SDS011;1008;47.404;8.502;2023-05-10T13:04:48;3.00;;;1.67;;
2009;SDS011;1008;47.404;8.502;2023-05-10T13:07:15;3.93;;;1.77;;
2009;SDS011;1008;47.404;8.502;2023-05-10T13:09:42;3.67;;;2.43;;
2009;SDS011;1008;47.404;8.502;2023-05-10T13:12:08;4.73;;;1.83;;
2009;SDS011;1008;47.404;8.502;2023-05-10T13:14:35;1.70;;;1.20;;
2009;SDS011;1008;47.404;8.502;2023-05-10T13:17:02;1.63;;;1.40;;
2009;SDS011;1008;47.404;8.502;2023-05-10T13:19:30;3.20;;;1.80;;
2009;SDS011;1008;47.404;8.502;2023-05-10T13:21:57;4.50;;;2.07;;
2009;SDS011;1008;47.404;8.502;2023-05-10T13:24:24;3.07;;;2.10;;
2009;SDS011;1008;47.404;8.502;2023-05-10T13:26:50;3.33;;;2.30;;
2009;SDS011;1008;47.404;8.502;2023-05-10T13:29:17;2.60;;;1.93;;
2009;SDS011;1008;47.404;8.502;2023-05-10T13:31:44;4.97;;;2.23;;
2009;SDS011;1008;47.404;8.502;2023-05-10T13:34:11;3.50;;;2.10;;
2009;SDS011;1008;47.404;8.502;2023-05-10T13:36:39;4.67;;;2.27;;
2009;SDS011;1008;47.404;8.502;2023-05-10T13:39:06;2.33;;;2.13;;
2009;SDS011;1008;47.404;8.502;2023-05-10T13:41:33;3.40;;;2.07;;
2009;SDS011;1008;47.404;8.502;2023-05-10T13:44:00;4.40;;;1.90;;
2009;SDS011;1008;47.404;8.502;2023-05-10T13:46:26;3.77;;;2.07;;
2009;SDS011;1008;47.404;8.502;2023-05-10T13:48:53;4.60;;;2.13;;
2009;SDS011;1008;47.404;8.502;2023-05-10T13:51:20;3.83;;;2.17;;
2009;SDS011;1008;47.404;8.502;2023-05-10T13:53:48;3.43;;;2.43;;
2009;SDS011;1008;47.404;8.502;2023-05-10T13:56:15;3.30;;;2.20;;
2009;SDS011;1008;47.404;8.502;2023-05-10T13:58:42;3.50;;;2.37;;
2009;SDS011;1008;47.404;8.502;2023-05-10T14:01:09;4.50;;;2.10;;
2009;SDS011;1008;47.404;8.502;2023-05-10T14:03:37;2.80;;;2.37;;
2009;SDS011;1008;47.404;8.502;2023-05-10T14:06:03;3.23;;;2.07;;
2009;SDS011;1008;47.404;8.502;2023-05-10T14:08:32;7.63;;;2.40;;
2009;SDS011;1008;47.404;8.502;2023-05-10T14:11:00;4.37;;;2.43;;
2009;SDS011;1008;47.404;8.502;2023-05-10T14:13:27;3.90;;;2.30;;
2009;SDS011;1008;47.404;8.502;2023-05-10T14:15:54;2.30;;;1.80;;
2009;SDS011;1008;47.404;8.502;2023-05-10T14:18:20;3.97;;;2.47;;
2009;SDS011;1008;47.404;8.502;2023-05-10T14:20:47;2.40;;;2.20;;
2009;SDS011;1008;47.404;8.502;2023-05-10T14:23:14;3.17;;;2.30;;
2009;SDS011;1008;47.404;8.502;2023-05-10T14:25:41;4.00;;;2.40;;
2009;SDS011;1008;47.404;8.502;2023-05-10T14:28:09;2.40;;;2.00;;
2009;SDS011;1008;47.404;8.502;2023-05-10T14:30:37;3.40;;;1.70;;
2009;SDS011;1008;47.404;8.502;2023-05-10T14:33:04;2.87;;;2.30;;
2009;SDS011;1008;47.404;8.502;2023-05-10T14:35:30;3.70;;;2.23;;
2009;SDS011;1008;47.404;8.502;2023-05-10T14:37:57;4.10;;;2.00;;
2009;SDS011;1008;47.404;8.502;2023-05-10T14:40:24;3.60;;;2.30;;
2009;SDS011;1008;47.404;8.502;2023-05-10T14:42:51;5.27;;;2.00;;
2009;SDS011;1008;47.404;8.502;2023-05-10T14:45:20;2.13;;;1.73;;
2009;SDS011;1008;47.404;8.502;2023-05-10T14:47:47;2.90;;;1.73;;
2009;SDS011;1008;47.404;8.502;2023-05-10T14:50:14;3.33;;;2.00;;
2009;SDS011;1008;47.404;8.502;2023-05-10T14:52:41;2.53;;;1.90;;
2009;SDS011;1008;47.404;8.502;2023-05-10T14:55:08;2.67;;;2.10;;
2009;SDS011;1008;47.404;8.502;2023-05-10T14:57:35;3.27;;;1.80;;
2009;SDS011;1008;47.404;8.502;2023-05-10T15:00:02;2.37;;;1.27;;
2009;SDS011;1008;47.404;8.502;2023-05-10T15:02:31;2.97;;;1.90;;
2009;SDS011;1008;47.404;8.502;2023-05-10T15:04:58;2.80;;;1.70;;
2009;SDS011;1008;47.404;8.502;2023-05-10T15:07:25;2.60;;;1.83;;
2009;SDS011;1008;47.404;8.502;2023-05-10T15:09:51;6.50;;;1.70;;
2009;SDS011;1008;47.404;8.502;2023-05-10T15:12:19;2.27;;;1.80;;
2009;SDS011;1008;47.404;8.502;2023-05-10T15:14:46;1.70;;;1.50;;
2009;SDS011;1008;47.404;8.502;2023-05-10T15:17:13;2.10;;;1.70;;
2009;SDS011;1008;47.404;8.502;2023-05-10T15:19:41;4.17;;;2.10;;
2009;SDS011;1008;47.404;8.502;2023-05-10T15:22:07;2.50;;;2.07;;
2009;SDS011;1008;47.404;8.502;2023-05-10T15:24:35;6.67;;;2.30;;
2009;SDS011;1008;47.404;8.502;2023-05-10T15:27:02;1.97;;;1.77;;
2009;SDS011;1008;47.404;8.502;2023-05-10T15:29:28;2.07;;;1.70;;
2009;SDS011;1008;47.404;8.502;2023-05-10T15:31:56;3.53;;;1.57;;
2009;SDS011;1008;47.404;8.502;2023-05-10T15:34:23;2.10;;;1.40;;